sensor_id;sensor_type;location;lat;lon;timestamp;P1;durP1;ratioP1;P2;durP2;ratioP2
69502;SDS011;56704;54.242;12.442;2023-09-19T00:00:30;7.57;;;2.00;;
69502;SDS011;56704;54.242;12.442;2023-09-19T00:02:58;4.07;;;1.63;;
69502;SDS011;56704;54.242;12.442;2023-09-19T00:05:27;5.85;;;1.80;;
69502;SDS011;56704;54.242;12.442;2023-09-19T00:07:57;6.00;;;1.67;;
69502;SDS011;56704;54.242;12.442;2023-09-19T00:10:24;7.05;;;1.77;;
69502;SDS011;56704;54.242;12.442;2023-09-19T00:12:51;7.80;;;1.70;;
69502;SDS011;56704;54.242;12.442;2023-09-19T00:15:20;5.53;;;1.80;;
69502;SDS011;56704;54.242;12.442;2023-09-19T00:17:46;6.45;;;2.40;;
69502;SDS011;56704;54.242;12.442;2023-09-19T00:20:13;5.72;;;1.88;;
69502;SDS011;56704;54.242;12.442;2023-09-19T00:22:43;7.15;;;1.63;;
69502;SDS011;56704;54.242;12.442;2023-09-19T00:25:10;4.90;;;1.73;;
69502;SDS011;56704;54.242;12.442;2023-09-19T00:27:40;5.07;;;1.67;;
69502;SDS011;56704;54.242;12.442;2023-09-19T00:30:08;5.13;;;1.80;;
69502;SDS011;56704;54.242;12.442;2023-09-19T00:32:41;7.07;;;1.58;;
69502;SDS011;56704;54.242;12.442;2023-09-19T00:35:08;5.47;;;1.83;;
69502;SDS011;56704;54.242;12.442;2023-09-19T00:37:35;3.53;;;1.30;;
69502;SDS011;56704;54.242;12.442;2023-09-19T00:40:04;5.60;;;1.48;;
69502;SDS011;56704;54.242;12.442;2023-09-19T00:42:34;4.07;;;1.58;;
69502;SDS011;56704;54.242;12.442;2023-09-19T00:45:03;4.45;;;1.70;;
69502;SDS011;56704;54.242;12.442;2023-09-19T00:47:31;4.60;;;1.40;;
69502;SDS011;56704;54.242;12.442;2023-09-19T00:49:58;3.87;;;1.10;;
69502;SDS011;56704;54.242;12.442;2023-09-19T00:52:25;3.65;;;1.10;;
69502;SDS011;56704;54.242;12.442;2023-09-19T00:54:53;4.70;;;1.58;;
69502;SDS011;56704;54.242;12.442;2023-09-19T00:57:21;3.50;;;1.40;;
69502;SDS011;56704;54.242;12.442;2023-09-19T00:59:49;5.20;;;1.40;;
69502;SDS011;56704;54.242;12.442;2023-09-19T01:02:18;3.23;;;1.27;;
69502;SDS011;56704;54.242;12.442;2023-09-19T01:04:46;4.75;;;1.40;;
69502;SDS011;56704;54.242;12.442;2023-09-19T01:07:12;3.05;;;1.20;;
69502;SDS011;56704;54.242;12.442;2023-09-19T01:09:40;5.75;;;0.90;;
69502;SDS011;56704;54.242;12.442;2023-09-19T01:12:07;2.80;;;0.80;;
69502;SDS011;56704;54.242;12.442;2023-09-19T01:14:41;5.13;;;1.23;;
69502;SDS011;56704;54.242;12.442;2023-09-19T01:17:14;3.15;;;0.70;;
69502;SDS011;56704;54.242;12.442;2023-09-19T01:22:42;3.92;;;0.57;;
69502;SDS011;56704;54.242;12.442;2023-09-19T01:25:26;2.97;;;0.80;;
69502;SDS011;56704;54.242;12.442;2023-09-19T01:28:07;3.63;;;0.60;;
69502;SDS011;56704;54.242;12.442;2023-09-19T01:30:48;4.30;;;0.70;;
69502;SDS011;56704;54.242;12.442;2023-09-19T01:33:23;2.20;;;0.60;;
69502;SDS011;56704;54.242;12.442;2023-09-19T01:35:49;2.60;;;0.60;;
69502;SDS011;56704;54.242;12.442;2023-09-19T01:38:18;3.13;;;0.63;;
69502;SDS011;56704;54.242;12.442;2023-09-19T01:40:47;2.87;;;0.60;;
69502;SDS011;56704;54.242;12.442;2023-09-19T01:43:26;3.58;;;0.60;;
69502;SDS011;56704;54.242;12.442;2023-09-19T01:46:02;1.90;;;0.60;;
69502;SDS011;56704;54.242;12.442;2023-09-19T01:48:38;2.05;;;0.57;;
69502;SDS011;56704;54.242;12.442;2023-09-19T01:51:11;2.63;;;0.57;;
69502;SDS011;56704;54.242;12.442;2023-09-19T01:53:50;3.37;;;0.50;;
69502;SDS011;56704;54.242;12.442;2023-09-19T01:56:22;4.00;;;0.70;;
69502;SDS011;56704;54.242;12.442;2023-09-19T01:59:02;3.30;;;0.60;;
69502;SDS011;56704;54.242;12.442;2023-09-19T02:01:35;1.90;;;0.57;;
69502;SDS011;56704;54.242;12.442;2023-09-19T02:04:03;6.05;;;0.73;;
69502;SDS011;56704;54.242;12.442;2023-09-19T02:06:30;5.07;;;1.17;;
69502;SDS011;56704;54.242;12.442;2023-09-19T02:08:59;4.43;;;0.82;;
69502;SDS011;56704;54.242;12.442;2023-09-19T02:11:25;3.78;;;0.70;;
69502;SDS011;56704;54.242;12.442;2023-09-19T02:13:52;3.50;;;0.60;;
69502;SDS011;56704;54.242;12.442;2023-09-19T02:16:19;4.78;;;0.77;;
69502;SDS011;56704;54.242;12.442;2023-09-19T02:18:48;3.97;;;0.77;;
69502;SDS011;56704;54.242;12.442;2023-09-19T02:21:16;3.90;;;0.50;;
69502;SDS011;56704;54.242;12.442;2023-09-19T02:23:43;3.45;;;0.82;;
69502;SDS011;56704;54.242;12.442;2023-09-19T02:26:09;4.28;;;0.85;;
69502;SDS011;56704;54.242;12.442;2023-09-19T02:28:36;4.00;;;0.65;;
69502;SDS011;56704;54.242;12.442;2023-09-19T02:31:03;2.30;;;0.70;;
69502;SDS011;56704;54.242;12.442;2023-09-19T02:33:31;5.20;;;1.23;;
69502;SDS011;56704;54.242;12.442;2023-09-19T02:36:00;4.28;;;0.80;;
69502;SDS011;56704;54.242;12.442;2023-09-19T02:38:29;4.82;;;0.52;;
69502;SDS011;56704;54.242;12.442;2023-09-19T02:40:55;2.75;;;0.85;;
69502;SDS011;56704;54.242;12.442;2023-09-19T02:43:22;4.87;;;0.90;;
69502;SDS011;56704;54.242;12.442;2023-09-19T02:45:49;5.07;;;1.08;;
69502;SDS011;56704;54.242;12.442;2023-09-19T02:48:18;3.90;;;1.00;;
69502;SDS011;56704;54.242;12.442;2023-09-19T02:50:45;5.15;;;0.77;;
69502;SDS011;56704;54.242;12.442;2023-09-19T02:53:13;5.28;;;1.23;;
69502;SDS011;56704;54.242;12.442;2023-09-19T02:55:40;3.93;;;1.00;;
69502;SDS011;56704;54.242;12.442;2023-09-19T02:58:06;5.28;;;1.10;;
69502;SDS011;56704;54.242;12.442;2023-09-19T03:00:36;3.80;;;1.15;;
69502;SDS011;56704;54.242;12.442;2023-09-19T03:03:07;5.15;;;0.90;;
69502;SDS011;56704;54.242;12.442;2023-09-19T03:05:34;4.38;;;0.80;;
69502;SDS011;56704;54.242;12.442;2023-09-19T03:08:01;3.70;;;1.10;;
69502;SDS011;56704;54.242;12.442;2023-09-19T03:10:30;5.55;;;1.10;;
69502;SDS011;56704;54.242;12.442;2023-09-19T03:12:57;3.33;;;1.00;;
69502;SDS011;56704;54.242;12.442;2023-09-19T03:15:24;5.22;;;1.40;;
69502;SDS011;56704;54.242;12.442;2023-09-19T03:17:51;4.65;;;1.00;;
69502;SDS011;56704;54.242;12.442;2023-09-19T03:20:18;3.97;;;1.20;;
69502;SDS011;56704;54.242;12.442;2023-09-19T03:22:46;4.60;;;1.10;;
69502;SDS011;56704;54.242;12.442;2023-09-19T03:25:13;3.92;;;1.13;;
69502;SDS011;56704;54.242;12.442;2023-09-19T03:27:41;4.10;;;1.00;;
69502;SDS011;56704;54.242;12.442;2023-09-19T03:30:08;3.85;;;1.20;;
69502;SDS011;56704;54.242;12.442;2023-09-19T03:32:43;3.83;;;0.90;;
69502;SDS011;56704;54.242;12.442;2023-09-19T03:35:09;4.78;;;1.15;;
69502;SDS011;56704;54.242;12.442;2023-09-19T03:37:39;3.70;;;1.10;;
69502;SDS011;56704;54.242;12.442;2023-09-19T03:40:06;3.30;;;1.02;;
69502;SDS011;56704;54.242;12.442;2023-09-19T03:42:37;3.17;;;1.40;;
69502;SDS011;56704;54.242;12.442;2023-09-19T03:45:06;2.97;;;1.13;;
69502;SDS011;56704;54.242;12.442;2023-09-19T03:47:37;5.32;;;1.50;;
69502;SDS011;56704;54.242;12.442;2023-09-19T03:50:04;6.05;;;1.50;;
69502;SDS011;56704;54.242;12.442;2023-09-19T03:52:32;5.45;;;1.45;;
69502;SDS011;56704;54.242;12.442;2023-09-19T03:54:58;5.00;;;1.63;;
69502;SDS011;56704;54.242;12.442;2023-09-19T03:57:24;4.13;;;1.17;;
69502;SDS011;56704;54.242;12.442;2023-09-19T03:59:51;4.38;;;1.40;;
69502;SDS011;56704;54.242;12.442;2023-09-19T04:02:19;6.47;;;1.50;;
69502;SDS011;56704;54.242;12.442;2023-09-19T04:04:48;4.05;;;1.50;;
69502;SDS011;56704;54.242;12.442;2023-09-19T04:07:15;4.13;;;1.40;;
69502;SDS011;56704;54.242;12.442;2023-09-19T04:09:41;3.97;;;1.43;;
69502;SDS011;56704;54.242;12.442;2023-09-19T04:12:08;4.57;;;1.25;;
69502;SDS011;56704;54.242;12.442;2023-09-19T04:14:35;4.13;;;1.50;;
69502;SDS011;56704;54.242;12.442;2023-09-19T04:17:01;4.90;;;1.40;;
69502;SDS011;56704;54.242;12.442;2023-09-19T04:19:29;4.50;;;1.63;;
69502;SDS011;56704;54.242;12.442;2023-09-19T04:21:56;6.47;;;1.90;;
69502;SDS011;56704;54.242;12.442;2023-09-19T04:24:23;5.63;;;1.50;;
69502;SDS011;56704;54.242;12.442;2023-09-19T04:26:49;4.50;;;1.75;;
69502;SDS011;56704;54.242;12.442;2023-09-19T04:29:16;4.95;;;1.92;;
69502;SDS011;56704;54.242;12.442;2023-09-19T04:31:44;4.32;;;1.38;;
69502;SDS011;56704;54.242;12.442;2023-09-19T04:34:11;6.03;;;1.83;;
69502;SDS011;56704;54.242;12.442;2023-09-19T04:36:41;4.72;;;1.65;;
69502;SDS011;56704;54.242;12.442;2023-09-19T04:39:08;4.50;;;1.58;;
69502;SDS011;56704;54.242;12.442;2023-09-19T04:41:35;7.97;;;2.10;;
69502;SDS011;56704;54.242;12.442;2023-09-19T04:44:04;5.07;;;1.90;;
69502;SDS011;56704;54.242;12.442;2023-09-19T04:46:31;5.00;;;1.40;;
69502;SDS011;56704;54.242;12.442;2023-09-19T04:48:57;4.43;;;1.70;;
69502;SDS011;56704;54.242;12.442;2023-09-19T04:51:24;8.30;;;1.73;;
69502;SDS011;56704;54.242;12.442;2023-09-19T04:53:55;5.57;;;1.60;;
69502;SDS011;56704;54.242;12.442;2023-09-19T04:56:22;3.90;;;1.77;;
69502;SDS011;56704;54.242;12.442;2023-09-19T04:58:49;6.37;;;1.50;;
69502;SDS011;56704;54.242;12.442;2023-09-19T05:01:15;6.13;;;1.83;;
69502;SDS011;56704;54.242;12.442;2023-09-19T05:03:42;4.97;;;1.52;;
69502;SDS011;56704;54.242;12.442;2023-09-19T05:06:09;5.28;;;1.73;;
69502;SDS011;56704;54.242;12.442;2023-09-19T05:08:36;5.38;;;1.85;;
69502;SDS011;56704;54.242;12.442;2023-09-19T05:11:05;4.47;;;1.70;;
69502;SDS011;56704;54.242;12.442;2023-09-19T05:13:31;5.00;;;1.50;;
69502;SDS011;56704;54.242;12.442;2023-09-19T05:15:59;4.70;;;1.63;;
69502;SDS011;56704;54.242;12.442;2023-09-19T05:18:27;3.80;;;1.60;;
69502;SDS011;56704;54.242;12.442;2023-09-19T05:20:54;8.57;;;2.08;;
69502;SDS011;56704;54.242;12.442;2023-09-19T05:23:21;6.17;;;2.43;;
69502;SDS011;56704;54.242;12.442;2023-09-19T05:25:47;6.60;;;1.70;;
69502;SDS011;56704;54.242;12.442;2023-09-19T05:28:15;5.85;;;1.63;;
69502;SDS011;56704;54.242;12.442;2023-09-19T05:30:42;5.80;;;1.73;;
69502;SDS011;56704;54.242;12.442;2023-09-19T05:33:09;5.80;;;1.90;;
69502;SDS011;56704;54.242;12.442;2023-09-19T05:35:36;5.50;;;1.70;;
69502;SDS011;56704;54.242;12.442;2023-09-19T05:38:05;6.10;;;1.83;;
69502;SDS011;56704;54.242;12.442;2023-09-19T05:40:34;5.47;;;1.60;;
69502;SDS011;56704;54.242;12.442;2023-09-19T05:43:01;6.05;;;2.10;;
69502;SDS011;56704;54.242;12.442;2023-09-19T05:45:30;4.72;;;2.05;;
69502;SDS011;56704;54.242;12.442;2023-09-19T05:48:05;5.53;;;1.60;;
69502;SDS011;56704;54.242;12.442;2023-09-19T05:50:34;8.15;;;2.20;;
69502;SDS011;56704;54.242;12.442;2023-09-19T05:53:01;7.07;;;1.80;;
69502;SDS011;56704;54.242;12.442;2023-09-19T05:55:29;6.25;;;1.42;;
69502;SDS011;56704;54.242;12.442;2023-09-19T05:57:56;7.95;;;2.00;;
69502;SDS011;56704;54.242;12.442;2023-09-19T06:00:23;6.17;;;2.00;;
69502;SDS011;56704;54.242;12.442;2023-09-19T06:02:54;5.68;;;1.88;;
69502;SDS011;56704;54.242;12.442;2023-09-19T06:05:21;4.13;;;1.88;;
69502;SDS011;56704;54.242;12.442;2023-09-19T06:07:48;4.07;;;1.55;;
69502;SDS011;56704;54.242;12.442;2023-09-19T06:10:15;4.32;;;1.90;;
69502;SDS011;56704;54.242;12.442;2023-09-19T06:12:42;5.90;;;1.47;;
69502;SDS011;56704;54.242;12.442;2023-09-19T06:15:10;4.88;;;1.70;;
69502;SDS011;56704;54.242;12.442;2023-09-19T06:17:40;5.45;;;1.95;;
69502;SDS011;56704;54.242;12.442;2023-09-19T06:20:09;5.90;;;1.70;;
69502;SDS011;56704;54.242;12.442;2023-09-19T06:22:39;3.92;;;1.23;;
69502;SDS011;56704;54.242;12.442;2023-09-19T06:25:07;5.83;;;1.33;;
69502;SDS011;56704;54.242;12.442;2023-09-19T06:27:36;5.35;;;1.70;;
69502;SDS011;56704;54.242;12.442;2023-09-19T06:30:03;9.73;;;1.42;;
69502;SDS011;56704;54.242;12.442;2023-09-19T06:32:31;10.07;;;1.77;;
69502;SDS011;56704;54.242;12.442;2023-09-19T06:34:58;6.13;;;1.73;;
69502;SDS011;56704;54.242;12.442;2023-09-19T06:37:28;7.23;;;2.00;;
69502;SDS011;56704;54.242;12.442;2023-09-19T06:39:54;6.43;;;1.67;;
69502;SDS011;56704;54.242;12.442;2023-09-19T06:42:22;9.43;;;1.80;;
69502;SDS011;56704;54.242;12.442;2023-09-19T06:44:48;7.30;;;1.40;;
69502;SDS011;56704;54.242;12.442;2023-09-19T06:47:15;4.80;;;1.65;;
69502;SDS011;56704;54.242;12.442;2023-09-19T06:49:42;6.40;;;1.77;;
69502;SDS011;56704;54.242;12.442;2023-09-19T06:52:09;5.22;;;1.75;;
69502;SDS011;56704;54.242;12.442;2023-09-19T06:54:37;6.35;;;1.73;;
69502;SDS011;56704;54.242;12.442;2023-09-19T06:57:05;6.78;;;1.60;;
69502;SDS011;56704;54.242;12.442;2023-09-19T06:59:34;4.97;;;1.80;;
69502;SDS011;56704;54.242;12.442;2023-09-19T07:02:02;4.97;;;1.70;;
69502;SDS011;56704;54.242;12.442;2023-09-19T07:04:31;6.50;;;1.67;;
69502;SDS011;56704;54.242;12.442;2023-09-19T07:06:57;6.45;;;1.40;;
69502;SDS011;56704;54.242;12.442;2023-09-19T07:09:24;5.60;;;1.10;;
69502;SDS011;56704;54.242;12.442;2023-09-19T07:11:53;9.27;;;1.58;;
69502;SDS011;56704;54.242;12.442;2023-09-19T07:14:20;4.93;;;1.30;;
69502;SDS011;56704;54.242;12.442;2023-09-19T07:16:47;4.40;;;1.10;;
69502;SDS011;56704;54.242;12.442;2023-09-19T07:19:15;3.22;;;0.98;;
69502;SDS011;56704;54.242;12.442;2023-09-19T07:21:42;5.63;;;1.38;;
69502;SDS011;56704;54.242;12.442;2023-09-19T07:24:09;3.90;;;0.88;;
69502;SDS011;56704;54.242;12.442;2023-09-19T07:26:35;4.63;;;0.93;;
69502;SDS011;56704;54.242;12.442;2023-09-19T07:29:03;5.18;;;1.15;;
69502;SDS011;56704;54.242;12.442;2023-09-19T07:31:31;6.03;;;1.30;;
69502;SDS011;56704;54.242;12.442;2023-09-19T07:33:58;4.80;;;1.08;;
69502;SDS011;56704;54.242;12.442;2023-09-19T07:36:25;3.63;;;0.77;;
69502;SDS011;56704;54.242;12.442;2023-09-19T07:38:54;7.07;;;0.90;;
69502;SDS011;56704;54.242;12.442;2023-09-19T07:41:23;5.72;;;0.90;;
69502;SDS011;56704;54.242;12.442;2023-09-19T07:43:50;6.90;;;1.15;;
69502;SDS011;56704;54.242;12.442;2023-09-19T07:46:18;6.78;;;1.02;;
69502;SDS011;56704;54.242;12.442;2023-09-19T07:48:46;5.55;;;0.70;;
69502;SDS011;56704;54.242;12.442;2023-09-19T07:51:14;8.57;;;1.27;;
69502;SDS011;56704;54.242;12.442;2023-09-19T07:53:41;5.55;;;0.77;;
69502;SDS011;56704;54.242;12.442;2023-09-19T07:56:09;5.55;;;0.70;;
69502;SDS011;56704;54.242;12.442;2023-09-19T07:58:36;7.68;;;1.38;;
69502;SDS011;56704;54.242;12.442;2023-09-19T08:01:06;5.35;;;0.88;;
69502;SDS011;56704;54.242;12.442;2023-09-19T08:03:35;6.83;;;1.20;;
69502;SDS011;56704;54.242;12.442;2023-09-19T08:06:05;5.53;;;0.70;;
69502;SDS011;56704;54.242;12.442;2023-09-19T08:08:33;3.60;;;0.40;;
69502;SDS011;56704;54.242;12.442;2023-09-19T08:11:02;4.85;;;1.00;;
69502;SDS011;56704;54.242;12.442;2023-09-19T08:13:35;3.83;;;0.63;;
69502;SDS011;56704;54.242;12.442;2023-09-19T08:16:02;3.20;;;0.60;;
69502;SDS011;56704;54.242;12.442;2023-09-19T08:18:29;5.75;;;0.85;;
69502;SDS011;56704;54.242;12.442;2023-09-19T08:20:57;7.75;;;1.05;;
69502;SDS011;56704;54.242;12.442;2023-09-19T08:23:25;2.80;;;0.50;;
69502;SDS011;56704;54.242;12.442;2023-09-19T08:25:55;6.47;;;0.40;;
69502;SDS011;56704;54.242;12.442;2023-09-19T08:28:23;5.77;;;0.60;;
69502;SDS011;56704;54.242;12.442;2023-09-19T08:30:49;4.93;;;0.50;;
69502;SDS011;56704;54.242;12.442;2023-09-19T08:33:17;8.15;;;1.00;;
69502;SDS011;56704;54.242;12.442;2023-09-19T08:35:44;5.38;;;0.70;;
69502;SDS011;56704;54.242;12.442;2023-09-19T08:38:12;5.47;;;0.70;;
69502;SDS011;56704;54.242;12.442;2023-09-19T08:40:39;5.73;;;0.60;;
69502;SDS011;56704;54.242;12.442;2023-09-19T08:43:07;3.55;;;0.40;;
69502;SDS011;56704;54.242;12.442;2023-09-19T08:45:34;5.05;;;0.98;;
69502;SDS011;56704;54.242;12.442;2023-09-19T08:48:04;4.53;;;0.80;;
69502;SDS011;56704;54.242;12.442;2023-09-19T08:50:43;7.32;;;0.73;;
69502;SDS011;56704;54.242;12.442;2023-09-19T08:53:16;4.10;;;0.40;;
69502;SDS011;56704;54.242;12.442;2023-09-19T08:55:48;5.63;;;0.70;;
69502;SDS011;56704;54.242;12.442;2023-09-19T08:58:19;5.90;;;0.63;;
69502;SDS011;56704;54.242;12.442;2023-09-19T09:00:48;5.07;;;0.50;;
69502;SDS011;56704;54.242;12.442;2023-09-19T09:03:15;4.75;;;0.70;;
69502;SDS011;56704;54.242;12.442;2023-09-19T09:05:45;5.03;;;0.63;;
69502;SDS011;56704;54.242;12.442;2023-09-19T09:08:12;7.22;;;1.00;;
69502;SDS011;56704;54.242;12.442;2023-09-19T09:10:42;5.93;;;0.70;;
69502;SDS011;56704;54.242;12.442;2023-09-19T09:13:10;6.00;;;0.50;;
69502;SDS011;56704;54.242;12.442;2023-09-19T09:15:39;6.82;;;0.90;;
69502;SDS011;56704;54.242;12.442;2023-09-19T09:18:09;6.40;;;0.67;;
69502;SDS011;56704;54.242;12.442;2023-09-19T09:20:35;7.15;;;0.43;;
69502;SDS011;56704;54.242;12.442;2023-09-19T09:23:02;5.25;;;0.90;;
69502;SDS011;56704;54.242;12.442;2023-09-19T09:25:50;5.03;;;0.90;;
69502;SDS011;56704;54.242;12.442;2023-09-19T09:28:22;6.43;;;0.73;;
69502;SDS011;56704;54.242;12.442;2023-09-19T09:30:49;4.00;;;0.70;;
69502;SDS011;56704;54.242;12.442;2023-09-19T09:33:16;5.22;;;0.80;;
69502;SDS011;56704;54.242;12.442;2023-09-19T09:35:53;4.47;;;0.85;;
69502;SDS011;56704;54.242;12.442;2023-09-19T09:38:22;4.22;;;0.63;;
69502;SDS011;56704;54.242;12.442;2023-09-19T09:40:54;4.07;;;0.90;;
69502;SDS011;56704;54.242;12.442;2023-09-19T09:43:30;4.50;;;0.80;;
69502;SDS011;56704;54.242;12.442;2023-09-19T09:46:11;6.00;;;1.00;;
69502;SDS011;56704;54.242;12.442;2023-09-19T09:48:55;8.48;;;0.88;;
69502;SDS011;56704;54.242;12.442;2023-09-19T09:51:58;4.68;;;0.77;;
69502;SDS011;56704;54.242;12.442;2023-09-19T09:54:30;5.47;;;0.75;;
69502;SDS011;56704;54.242;12.442;2023-09-19T09:57:03;3.80;;;0.65;;
69502;SDS011;56704;54.242;12.442;2023-09-19T09:59:48;6.38;;;1.00;;
69502;SDS011;56704;54.242;12.442;2023-09-19T10:02:18;5.23;;;0.67;;
69502;SDS011;56704;54.242;12.442;2023-09-19T10:04:49;7.80;;;1.05;;
69502;SDS011;56704;54.242;12.442;2023-09-19T10:07:36;5.03;;;0.90;;
69502;SDS011;56704;54.242;12.442;2023-09-19T10:10:06;7.13;;;0.75;;
69502;SDS011;56704;54.242;12.442;2023-09-19T10:12:44;5.95;;;1.13;;
69502;SDS011;56704;54.242;12.442;2023-09-19T10:15:13;5.00;;;1.17;;
69502;SDS011;56704;54.242;12.442;2023-09-19T10:17:42;9.75;;;1.08;;
69502;SDS011;56704;54.242;12.442;2023-09-19T10:20:11;6.45;;;0.90;;
69502;SDS011;56704;54.242;12.442;2023-09-19T10:22:53;6.20;;;1.08;;
69502;SDS011;56704;54.242;12.442;2023-09-19T10:25:25;5.32;;;1.30;;
69502;SDS011;56704;54.242;12.442;2023-09-19T10:27:55;6.47;;;0.80;;
69502;SDS011;56704;54.242;12.442;2023-09-19T10:30:24;5.80;;;1.10;;
69502;SDS011;56704;54.242;12.442;2023-09-19T10:32:56;5.22;;;0.90;;
69502;SDS011;56704;54.242;12.442;2023-09-19T10:35:30;4.13;;;0.60;;
69502;SDS011;56704;54.242;12.442;2023-09-19T10:38:00;4.70;;;0.60;;
69502;SDS011;56704;54.242;12.442;2023-09-19T10:40:28;4.27;;;0.83;;
69502;SDS011;56704;54.242;12.442;2023-09-19T10:43:03;7.15;;;1.20;;
69502;SDS011;56704;54.242;12.442;2023-09-19T10:45:32;4.00;;;1.15;;
69502;SDS011;56704;54.242;12.442;2023-09-19T10:48:00;6.72;;;0.90;;
69502;SDS011;56704;54.242;12.442;2023-09-19T10:50:29;6.57;;;0.80;;
69502;SDS011;56704;54.242;12.442;2023-09-19T10:53:02;4.67;;;0.67;;
69502;SDS011;56704;54.242;12.442;2023-09-19T10:55:33;2.30;;;0.40;;
69502;SDS011;56704;54.242;12.442;2023-09-19T10:58:01;3.08;;;0.60;;
69502;SDS011;56704;54.242;12.442;2023-09-19T11:00:49;2.80;;;0.60;;
69502;SDS011;56704;54.242;12.442;2023-09-19T11:03:18;4.40;;;0.68;;
69502;SDS011;56704;54.242;12.442;2023-09-19T11:11:48;4.63;;;0.90;;
69502;SDS011;56704;54.242;12.442;2023-09-19T11:14:28;3.13;;;0.60;;
69502;SDS011;56704;54.242;12.442;2023-09-19T11:20:23;5.30;;;0.83;;
69502;SDS011;56704;54.242;12.442;2023-09-19T11:23:17;6.93;;;0.90;;
69502;SDS011;56704;54.242;12.442;2023-09-19T11:25:53;5.32;;;0.95;;
69502;SDS011;56704;54.242;12.442;2023-09-19T11:40:44;6.85;;;1.00;;
69502;SDS011;56704;54.242;12.442;2023-09-19T11:43:33;6.10;;;0.85;;
69502;SDS011;56704;54.242;12.442;2023-09-19T11:46:07;3.33;;;0.60;;
69502;SDS011;56704;54.242;12.442;2023-09-19T11:48:34;4.30;;;0.70;;
69502;SDS011;56704;54.242;12.442;2023-09-19T11:51:09;4.88;;;0.70;;
69502;SDS011;56704;54.242;12.442;2023-09-19T11:53:44;3.35;;;0.85;;
69502;SDS011;56704;54.242;12.442;2023-09-19T11:56:13;4.82;;;0.60;;
69502;SDS011;56704;54.242;12.442;2023-09-19T11:58:43;6.75;;;0.80;;
69502;SDS011;56704;54.242;12.442;2023-09-19T12:01:12;5.47;;;1.10;;
69502;SDS011;56704;54.242;12.442;2023-09-19T12:03:40;4.88;;;0.93;;
69502;SDS011;56704;54.242;12.442;2023-09-19T12:06:13;4.15;;;0.80;;
69502;SDS011;56704;54.242;12.442;2023-09-19T12:08:40;5.97;;;0.95;;
69502;SDS011;56704;54.242;12.442;2023-09-19T12:11:11;7.85;;;1.05;;
69502;SDS011;56704;54.242;12.442;2023-09-19T12:13:44;5.10;;;1.00;;
69502;SDS011;56704;54.242;12.442;2023-09-19T12:16:12;3.13;;;0.90;;
69502;SDS011;56704;54.242;12.442;2023-09-19T12:18:41;4.45;;;0.90;;
69502;SDS011;56704;54.242;12.442;2023-09-19T12:21:20;5.18;;;1.30;;
69502;SDS011;56704;54.242;12.442;2023-09-19T12:23:56;4.85;;;1.20;;
69502;SDS011;56704;54.242;12.442;2023-09-19T12:26:40;6.00;;;1.40;;
69502;SDS011;56704;54.242;12.442;2023-09-19T12:29:16;6.07;;;0.80;;
69502;SDS011;56704;54.242;12.442;2023-09-19T12:31:47;6.97;;;1.20;;
69502;SDS011;56704;54.242;12.442;2023-09-19T12:34:20;4.93;;;0.85;;
69502;SDS011;56704;54.242;12.442;2023-09-19T12:36:48;6.45;;;1.05;;
69502;SDS011;56704;54.242;12.442;2023-09-19T12:39:24;3.40;;;0.60;;
69502;SDS011;56704;54.242;12.442;2023-09-19T12:41:52;9.52;;;1.48;;
69502;SDS011;56704;54.242;12.442;2023-09-19T12:44:20;7.10;;;0.98;;
69502;SDS011;56704;54.242;12.442;2023-09-19T12:46:49;9.50;;;1.35;;
69502;SDS011;56704;54.242;12.442;2023-09-19T12:49:16;7.15;;;1.30;;
69502;SDS011;56704;54.242;12.442;2023-09-19T12:51:44;8.87;;;1.33;;
69502;SDS011;56704;54.242;12.442;2023-09-19T12:54:12;9.20;;;1.30;;
69502;SDS011;56704;54.242;12.442;2023-09-19T12:56:41;7.43;;;1.75;;
69502;SDS011;56704;54.242;12.442;2023-09-19T12:59:09;6.95;;;0.82;;
69502;SDS011;56704;54.242;12.442;2023-09-19T13:01:40;3.67;;;0.85;;
69502;SDS011;56704;54.242;12.442;2023-09-19T13:04:11;4.80;;;0.83;;
69502;SDS011;56704;54.242;12.442;2023-09-19T13:06:43;3.95;;;0.85;;
69502;SDS011;56704;54.242;12.442;2023-09-19T13:09:11;3.25;;;0.65;;
69502;SDS011;56704;54.242;12.442;2023-09-19T13:11:39;4.57;;;0.70;;
69502;SDS011;56704;54.242;12.442;2023-09-19T13:14:18;4.95;;;0.70;;
69502;SDS011;56704;54.242;12.442;2023-09-19T13:16:58;4.53;;;0.63;;
69502;SDS011;56704;54.242;12.442;2023-09-19T13:19:39;5.43;;;0.88;;
69502;SDS011;56704;54.242;12.442;2023-09-19T13:25:07;6.00;;;1.00;;
69502;SDS011;56704;54.242;12.442;2023-09-19T13:27:39;5.07;;;0.85;;
69502;SDS011;56704;54.242;12.442;2023-09-19T13:30:06;4.40;;;0.67;;
69502;SDS011;56704;54.242;12.442;2023-09-19T13:32:35;5.32;;;0.90;;
69502;SDS011;56704;54.242;12.442;2023-09-19T13:35:02;5.47;;;0.88;;
69502;SDS011;56704;54.242;12.442;2023-09-19T13:37:30;4.68;;;0.80;;
69502;SDS011;56704;54.242;12.442;2023-09-19T13:39:56;4.43;;;0.80;;
69502;SDS011;56704;54.242;12.442;2023-09-19T13:42:24;5.43;;;0.90;;
69502;SDS011;56704;54.242;12.442;2023-09-19T13:44:54;5.10;;;0.63;;
69502;SDS011;56704;54.242;12.442;2023-09-19T13:47:21;5.65;;;0.68;;
69502;SDS011;56704;54.242;12.442;2023-09-19T13:49:51;4.28;;;0.75;;
69502;SDS011;56704;54.242;12.442;2023-09-19T13:52:17;4.35;;;0.60;;
69502;SDS011;56704;54.242;12.442;2023-09-19T13:54:44;7.07;;;0.80;;
69502;SDS011;56704;54.242;12.442;2023-09-19T13:57:11;4.80;;;0.93;;
69502;SDS011;56704;54.242;12.442;2023-09-19T13:59:38;6.28;;;0.82;;
69502;SDS011;56704;54.242;12.442;2023-09-19T14:02:05;6.68;;;1.00;;
69502;SDS011;56704;54.242;12.442;2023-09-19T14:04:32;4.68;;;0.60;;
69502;SDS011;56704;54.242;12.442;2023-09-19T14:07:00;5.57;;;1.17;;
69502;SDS011;56704;54.242;12.442;2023-09-19T14:09:28;3.58;;;0.75;;
69502;SDS011;56704;54.242;12.442;2023-09-19T14:11:55;4.20;;;0.98;;
69502;SDS011;56704;54.242;12.442;2023-09-19T14:14:22;2.63;;;0.60;;
69502;SDS011;56704;54.242;12.442;2023-09-19T14:16:48;3.17;;;0.80;;
69502;SDS011;56704;54.242;12.442;2023-09-19T14:19:16;5.50;;;0.80;;
69502;SDS011;56704;54.242;12.442;2023-09-19T14:21:42;3.47;;;0.65;;
69502;SDS011;56704;54.242;12.442;2023-09-19T14:24:10;4.82;;;0.95;;
69502;SDS011;56704;54.242;12.442;2023-09-19T14:26:37;3.45;;;0.90;;
69502;SDS011;56704;54.242;12.442;2023-09-19T14:29:04;5.22;;;0.90;;
69502;SDS011;56704;54.242;12.442;2023-09-19T14:31:32;3.43;;;0.60;;
69502;SDS011;56704;54.242;12.442;2023-09-19T14:33:59;5.97;;;0.90;;
69502;SDS011;56704;54.242;12.442;2023-09-19T14:36:27;3.60;;;0.75;;
69502;SDS011;56704;54.242;12.442;2023-09-19T14:38:54;6.03;;;0.70;;
69502;SDS011;56704;54.242;12.442;2023-09-19T14:41:23;6.57;;;0.90;;
69502;SDS011;56704;54.242;12.442;2023-09-19T14:43:50;4.83;;;0.80;;
69502;SDS011;56704;54.242;12.442;2023-09-19T14:49:11;5.50;;;0.98;;
69502;SDS011;56704;54.242;12.442;2023-09-19T14:51:40;6.68;;;0.82;;
69502;SDS011;56704;54.242;12.442;2023-09-19T14:54:09;4.65;;;1.05;;
69502;SDS011;56704;54.242;12.442;2023-09-19T14:56:37;7.90;;;0.90;;
69502;SDS011;56704;54.242;12.442;2023-09-19T14:59:04;4.47;;;1.10;;
69502;SDS011;56704;54.242;12.442;2023-09-19T15:01:32;4.78;;;1.10;;
69502;SDS011;56704;54.242;12.442;2023-09-19T15:03:59;6.80;;;1.17;;
69502;SDS011;56704;54.242;12.442;2023-09-19T15:06:26;4.75;;;0.70;;
69502;SDS011;56704;54.242;12.442;2023-09-19T15:08:53;8.60;;;0.80;;
69502;SDS011;56704;54.242;12.442;2023-09-19T15:11:20;6.30;;;1.35;;
69502;SDS011;56704;54.242;12.442;2023-09-19T15:13:50;4.88;;;0.80;;
69502;SDS011;56704;54.242;12.442;2023-09-19T15:16:17;5.07;;;1.10;;